createdAt,value
2023-08-17T00:01:51.064Z,100645.94
2023-08-17T00:04:19.739Z,100644.44
2023-08-17T00:06:48.266Z,100636.75
2023-08-17T00:09:17.941Z,100641.75
2023-08-17T00:11:46.213Z,100635.75
2023-08-17T00:14:14.481Z,100642.72
2023-08-17T00:16:43.993Z,100646.63
2023-08-17T00:19:12.739Z,100648.84
2023-08-17T00:21:41.334Z,100652.88
2023-08-17T00:24:10.309Z,100658.88
2023-08-17T00:26:38.488Z,100656.06
2023-08-17T00:29:06.955Z,100666.66
2023-08-17T00:31:36.286Z,100655.69
2023-08-17T00:34:06.452Z,100652.88
2023-08-17T00:36:34.817Z,100659.56
2023-08-17T00:39:03.636Z,100655.81
2023-08-17T00:41:32.529Z,100647.13
2023-08-17T00:44:02.101Z,100653.34
2023-08-17T00:46:31.892Z,100655.91
2023-08-17T00:49:00.569Z,100655.38
2023-08-17T00:51:30.717Z,100646.47
2023-08-17T00:54:03.388Z,100645.97
2023-08-17T00:56:33.349Z,100648.50
2023-08-17T00:59:02.391Z,100645.44
2023-08-17T01:01:32.553Z,100636.50
2023-08-17T01:04:01.405Z,100638.34
2023-08-17T01:06:30.995Z,100641.03
2023-08-17T01:09:00.328Z,100633.84
2023-08-17T01:11:34.626Z,100640.66
2023-08-17T01:14:07.466Z,100638.94
2023-08-17T01:16:41.651Z,100636.50
2023-08-17T01:19:12.106Z,100638.00
2023-08-17T01:21:46.368Z,100643.84
2023-08-17T01:24:16.581Z,100636.63
2023-08-17T01:26:45.482Z,100640.66
2023-08-17T01:29:13.996Z,100639.31
2023-08-17T01:31:49.704Z,100626.38
2023-08-17T01:34:28.893Z,100629.91
2023-08-17T01:37:00.880Z,100626.50
2023-08-17T01:39:39.674Z,100630.53
2023-08-17T01:42:09.810Z,100626.72
2023-08-17T01:44:38.912Z,100640.63
2023-08-17T01:47:07.482Z,100635.50
2023-08-17T01:49:35.854Z,100631.22
2023-08-17T01:52:04.309Z,100625.59
2023-08-17T01:54:34.381Z,100624.28
2023-08-17T01:57:02.802Z,100619.63
2023-08-17T01:59:31.164Z,100623.50
2023-08-17T02:01:59.507Z,100631.78
2023-08-17T02:04:28.113Z,100637.25
2023-08-17T02:06:56.390Z,100630.69
2023-08-17T02:09:27.663Z,100628.56
2023-08-17T02:11:57.261Z,100621.97
2023-08-17T02:14:27.055Z,100628.06
2023-08-17T02:16:55.449Z,100624.84
2023-08-17T02:19:24.322Z,100620.59
2023-08-17T02:21:52.686Z,100611.22
2023-08-17T02:24:21.647Z,100613.63
2023-08-17T02:26:51.206Z,100612.97
2023-08-17T02:29:20.894Z,100614.91
2023-08-17T02:31:49.224Z,100612.69
2023-08-17T02:34:17.622Z,100612.22
2023-08-17T02:36:48.998Z,100610.88
2023-08-17T02:39:17.853Z,100608.06
2023-08-17T02:41:50.680Z,100612.28
2023-08-17T02:44:20.558Z,100613.81
2023-08-17T02:46:48.745Z,100612.38
2023-08-17T02:49:19.505Z,100610.41
2023-08-17T02:51:47.752Z,100610.78
2023-08-17T02:54:16.634Z,100616.91
2023-08-17T02:56:49.080Z,100614.41
2023-08-17T02:59:17.531Z,100621.97
2023-08-17T03:01:55.900Z,100624.16
2023-08-17T03:04:25.369Z,100624.69
2023-08-17T03:06:53.683Z,100625.53
2023-08-17T03:09:24.262Z,100628.47
2023-08-17T03:11:52.591Z,100621.56
2023-08-17T03:14:20.895Z,100622.88
2023-08-17T03:16:49.873Z,100624.69
2023-08-17T03:19:19.617Z,100604.81
2023-08-17T03:21:48.831Z,100607.84
2023-08-17T03:24:19.183Z,100605.69
2023-08-17T03:26:47.983Z,100621.06
2023-08-17T03:29:17.311Z,100618.94
2023-08-17T03:31:45.855Z,100614.41
2023-08-17T03:34:16.775Z,100618.94
2023-08-17T03:36:55.264Z,100621.63
2023-08-17T03:39:24.421Z,100621.75
2023-08-17T03:41:55.504Z,100620.22
2023-08-17T03:44:24.320Z,100624.44
2023-08-17T03:46:52.729Z,100620.16
2023-08-17T03:49:21.679Z,100628.97
2023-08-17T03:51:52.891Z,100623.22
2023-08-17T03:54:21.553Z,100628.97
2023-08-17T03:56:53.490Z,100637.84
2023-08-17T03:59:21.956Z,100638.56
2023-08-17T04:01:54.511Z,100635.34
2023-08-17T04:04:24.773Z,100638.97
2023-08-17T04:06:55.002Z,100634.97
2023-08-17T04:09:24.732Z,100633.66
2023-08-17T04:11:55.423Z,100629.84
2023-08-17T04:14:26.552Z,100636.66
2023-08-17T04:16:59.107Z,100638.31
2023-08-17T04:19:27.693Z,100646.19
2023-08-17T04:22:00.805Z,100647.13
2023-08-17T04:24:32.482Z,100647.78
2023-08-17T04:27:02.076Z,100640.78
2023-08-17T04:29:30.333Z,100642.25
2023-08-17T04:31:59.470Z,100652.34
2023-08-17T04:34:30.839Z,100655.28
2023-08-17T04:37:00.688Z,100652.94
2023-08-17T04:39:28.913Z,100656.59
2023-08-17T04:41:58.221Z,100656.22
2023-08-17T04:44:32.732Z,100651.94
2023-08-17T04:47:01.698Z,100658.31
2023-08-17T04:49:31.464Z,100652.22
2023-08-17T04:52:01.470Z,100650.88
2023-08-17T04:54:30.234Z,100660.53
2023-08-17T04:57:21.955Z,100654.72
2023-08-17T04:59:53.645Z,100656.31
2023-08-17T05:02:26.076Z,100664.59
2023-08-17T05:04:55.291Z,100664.72
2023-08-17T05:07:26.507Z,100658.19
2023-08-17T05:09:57.209Z,100662.78
2023-08-17T05:12:26.734Z,100665.00
2023-08-17T05:14:54.962Z,100668.25
2023-08-17T05:17:31.166Z,100673.41
2023-08-17T05:20:00.214Z,100682.34
2023-08-17T05:22:30.431Z,100677.69
2023-08-17T05:24:59.621Z,100672.59
2023-08-17T05:27:28.408Z,100683.56
2023-08-17T05:29:57.013Z,100685.88
2023-08-17T05:32:25.914Z,100685.28
2023-08-17T05:34:56.229Z,100693.75
2023-08-17T05:37:24.835Z,100689.13
2023-08-17T05:39:56.144Z,100695.00
2023-08-17T05:42:24.551Z,100686.28
2023-08-17T05:44:53.215Z,100681.75
2023-08-17T05:47:21.570Z,100681.00
2023-08-17T05:49:49.818Z,100683.81
2023-08-17T05:52:18.363Z,100683.50
2023-08-17T05:54:46.794Z,100692.41
2023-08-17T05:57:16.669Z,100686.44
2023-08-17T05:59:44.861Z,100694.00
2023-08-17T06:02:15.909Z,100695.25
2023-08-17T06:04:44.255Z,100686.81
2023-08-17T06:07:13.523Z,100689.28
2023-08-17T06:09:42.207Z,100678.66
2023-08-17T06:12:12.773Z,100684.28
2023-08-17T06:14:43.763Z,100689.38
2023-08-17T06:17:12.058Z,100694.28
2023-08-17T06:19:41.220Z,100685.94
2023-08-17T06:22:09.862Z,100681.25
2023-08-17T06:24:38.202Z,100683.81
2023-08-17T06:27:07.940Z,100686.31
2023-08-17T06:29:36.575Z,100689.69
2023-08-17T06:32:06.971Z,100684.69
2023-08-17T06:34:37.771Z,100690.38
2023-08-17T06:37:06.728Z,100686.53
2023-08-17T06:39:35.262Z,100685.06
2023-08-17T06:42:03.849Z,100685.91
2023-08-17T06:44:34.661Z,100676.38
2023-08-17T06:47:03.145Z,100682.28
2023-08-17T06:49:33.229Z,100687.28
2023-08-17T06:52:02.546Z,100687.16
2023-08-17T06:54:33.256Z,100688.22
2023-08-17T06:57:01.737Z,100690.81
2023-08-17T06:59:30.417Z,100687.19
2023-08-17T07:01:59.346Z,100680.38
2023-08-17T07:04:27.823Z,100684.63
2023-08-17T07:06:57.601Z,100684.75
2023-08-17T07:09:25.953Z,100693.78
2023-08-17T07:11:54.480Z,100688.47
2023-08-17T07:14:23.196Z,100691.97
2023-08-17T07:16:51.706Z,100700.00
2023-08-17T07:19:21.899Z,100705.75
2023-08-17T07:21:54.475Z,100709.06
2023-08-17T07:24:26.489Z,100704.78
2023-08-17T07:26:54.973Z,100717.75
2023-08-17T07:29:23.625Z,100711.59
2023-08-17T07:31:55.654Z,100712.00
2023-08-17T07:34:24.082Z,100706.91
2023-08-17T07:36:52.302Z,100709.34
2023-08-17T07:39:20.731Z,100703.38
2023-08-17T07:41:50.437Z,100703.28
2023-08-17T07:44:19.095Z,100694.84
2023-08-17T07:46:47.951Z,100699.38
2023-08-17T07:49:30.707Z,100701.84
2023-08-17T07:52:00.941Z,100689.78
2023-08-17T07:54:29.698Z,100698.41
2023-08-17T07:56:59.522Z,100701.25
2023-08-17T07:59:27.889Z,100694.69
2023-08-17T08:01:57.094Z,100704.72
2023-08-17T08:04:25.572Z,100703.50
2023-08-17T08:06:54.032Z,100706.13
2023-08-17T08:09:22.530Z,100702.28
2023-08-17T08:11:52.132Z,100689.34
2023-08-17T08:14:22.750Z,100691.25
2023-08-17T08:16:52.000Z,100697.56
2023-08-17T08:19:20.365Z,100698.50
2023-08-17T08:21:48.664Z,100706.50
2023-08-17T08:24:22.526Z,100700.56
2023-08-17T08:26:59.373Z,100693.22
2023-08-17T08:29:29.422Z,100700.91
2023-08-17T08:31:58.541Z,100681.91
2023-08-17T08:34:28.984Z,100686.84
2023-08-17T08:36:57.285Z,100688.81
2023-08-17T08:39:28.332Z,100686.91
2023-08-17T08:41:58.472Z,100686.31
2023-08-17T08:44:27.049Z,100687.63
2023-08-17T08:46:59.302Z,100694.63
2023-08-17T08:49:31.926Z,100689.97
2023-08-17T08:52:02.111Z,100688.59
2023-08-17T08:54:38.023Z,100694.78
2023-08-17T08:57:10.934Z,100693.19
2023-08-17T08:59:45.217Z,100687.94
2023-08-17T09:02:17.444Z,100683.91
2023-08-17T09:04:47.028Z,100685.97
2023-08-17T09:07:15.675Z,100679.84
2023-08-17T09:09:44.199Z,100687.47
2023-08-17T09:12:12.870Z,100670.69
2023-08-17T09:14:42.230Z,100674.81
2023-08-17T09:17:12.088Z,100679.25
2023-08-17T09:19:42.568Z,100672.88
2023-08-17T09:22:11.015Z,100679.63
2023-08-17T09:24:39.601Z,100671.22
2023-08-17T09:27:14.072Z,100671.50
2023-08-17T09:29:47.118Z,100668.16
2023-08-17T09:32:18.029Z,100665.16
2023-08-17T09:34:49.224Z,100657.78
2023-08-17T09:37:17.895Z,100662.41
2023-08-17T09:39:46.123Z,100655.13
2023-08-17T09:42:19.247Z,100654.63
2023-08-17T09:44:48.311Z,100658.59
2023-08-17T09:47:16.668Z,100661.72
2023-08-17T09:49:44.951Z,100662.69
2023-08-17T09:52:15.895Z,100661.50
2023-08-17T09:54:45.771Z,100660.47
2023-08-17T09:57:14.992Z,100659.09
2023-08-17T09:59:43.144Z,100652.78
2023-08-17T10:02:20.765Z,100654.22
2023-08-17T10:04:53.827Z,100656.75
2023-08-17T10:07:33.214Z,100658.50
2023-08-17T10:10:05.916Z,100651.56
2023-08-17T10:12:47.557Z,100651.72
2023-08-17T10:15:21.633Z,100649.53
2023-08-17T10:17:57.733Z,100651.97
2023-08-17T10:20:29.124Z,100655.47
2023-08-17T10:23:09.269Z,100654.56
2023-08-17T10:25:38.595Z,100651.78
2023-08-17T10:28:09.366Z,100646.84
2023-08-17T10:30:38.711Z,100641.97
2023-08-17T10:33:08.084Z,100647.44
2023-08-17T10:35:38.674Z,100640.91
2023-08-17T10:38:11.183Z,100647.59
2023-08-17T10:40:47.273Z,100645.13
2023-08-17T10:43:15.741Z,100643.91
2023-08-17T10:45:48.562Z,100635.28
2023-08-17T10:48:37.111Z,100641.66
2023-08-17T10:51:07.309Z,100631.75
2023-08-17T10:53:48.159Z,100630.63
2023-08-17T10:56:19.194Z,100628.53
2023-08-17T10:58:53.356Z,100629.72
2023-08-17T11:01:34.124Z,100627.28
2023-08-17T11:04:15.153Z,100629.59
2023-08-17T11:06:45.033Z,100632.56
2023-08-17T11:09:19.954Z,100638.44
2023-08-17T11:12:03.490Z,100639.03
2023-08-17T11:14:46.988Z,100642.50
2023-08-17T11:17:15.250Z,100642.06
2023-08-17T11:19:43.507Z,100632.44
2023-08-17T11:22:11.960Z,100633.41
2023-08-17T11:24:43.690Z,100633.88
2023-08-17T11:27:14.977Z,100630.53
2023-08-17T11:29:45.100Z,100637.25
2023-08-17T11:32:18.000Z,100637.41
2023-08-17T11:34:47.427Z,100636.34
2023-08-17T11:37:16.002Z,100624.22
2023-08-17T11:39:45.639Z,100627.56
2023-08-17T11:42:20.100Z,100621.00
2023-08-17T11:44:56.957Z,100622.56
2023-08-17T11:47:25.624Z,100626.31
2023-08-17T11:50:10.745Z,100624.91
2023-08-17T11:52:50.922Z,100618.16
2023-08-17T11:55:23.724Z,100620.06
2023-08-17T11:57:55.865Z,100619.53
2023-08-17T12:00:29.631Z,100616.66
2023-08-17T12:02:57.913Z,100614.41
2023-08-17T12:05:28.737Z,100624.63
2023-08-17T12:08:01.051Z,100633.38
2023-08-17T12:10:33.938Z,100631.97
2023-08-17T12:13:02.307Z,100631.25
2023-08-17T12:15:33.391Z,100631.16
2023-08-17T12:18:04.212Z,100638.28
2023-08-17T12:20:37.869Z,100636.03
2023-08-17T12:23:06.585Z,100646.69
2023-08-17T12:25:36.306Z,100642.84
2023-08-17T12:28:04.993Z,100641.47
2023-08-17T12:30:37.429Z,100638.38
2023-08-17T12:33:06.528Z,100645.56
2023-08-17T12:35:34.796Z,100656.91
2023-08-17T12:38:03.444Z,100648.94
2023-08-17T12:40:31.764Z,100660.13
2023-08-17T12:43:01.357Z,100654.94
2023-08-17T12:45:31.227Z,100658.00
2023-08-17T12:47:59.504Z,100659.28
2023-08-17T12:50:28.084Z,100648.59
2023-08-17T12:52:57.742Z,100644.63
2023-08-17T12:55:26.088Z,100632.84
2023-08-17T12:58:01.526Z,100631.56
2023-08-17T13:00:31.997Z,100632.50
2023-08-17T13:03:00.651Z,100631.91
2023-08-17T13:05:29.071Z,100618.97
2023-08-17T13:07:57.482Z,100622.25
2023-08-17T13:10:25.810Z,100616.34
2023-08-17T13:12:56.159Z,100611.91
2023-08-17T13:15:25.904Z,100613.38
2023-08-17T13:17:55.808Z,100606.56
2023-08-17T13:20:24.691Z,100600.94
2023-08-17T13:22:53.018Z,100593.06
2023-08-17T13:25:21.691Z,100588.78
2023-08-17T13:27:50.139Z,100587.16
2023-08-17T13:30:18.705Z,100582.06
2023-08-17T13:32:47.234Z,100575.44
2023-08-17T13:35:17.258Z,100571.53
2023-08-17T13:37:45.496Z,100556.84
2023-08-17T13:40:14.226Z,100539.22
2023-08-17T13:42:43.542Z,100534.63
2023-08-17T13:45:12.126Z,100523.25
2023-08-17T13:47:40.684Z,100522.63
2023-08-17T13:50:10.709Z,100515.50
2023-08-17T13:52:40.353Z,100512.47
2023-08-17T13:55:09.884Z,100517.94
2023-08-17T13:57:40.787Z,100523.81
2023-08-17T14:00:11.984Z,100520.44
2023-08-17T14:02:41.117Z,100498.88
2023-08-17T14:05:11.151Z,100498.84
2023-08-17T14:07:40.839Z,100501.53
2023-08-17T14:10:28.949Z,100497.69
2023-08-17T14:13:00.884Z,100499.78
2023-08-17T14:15:29.796Z,100486.25
2023-08-17T14:17:58.411Z,100474.13
2023-08-17T14:20:27.080Z,100479.34
2023-08-17T14:22:57.894Z,100473.69
2023-08-17T14:25:27.036Z,100468.44
2023-08-17T14:27:55.215Z,100470.28
2023-08-17T14:30:25.550Z,100469.88
2023-08-17T14:32:54.076Z,100462.00
2023-08-17T14:35:22.321Z,100472.31
2023-08-17T14:37:50.500Z,100468.78
2023-08-17T14:40:21.485Z,100459.69
2023-08-17T14:42:54.248Z,100452.84
2023-08-17T14:45:23.138Z,100453.53
2023-08-17T14:47:51.798Z,100447.16
2023-08-17T14:50:20.280Z,100444.31
2023-08-17T14:52:52.013Z,100440.06
2023-08-17T14:55:22.209Z,100431.44
2023-08-17T14:57:50.751Z,100427.81
2023-08-17T15:00:19.439Z,100420.34
2023-08-17T15:02:47.821Z,100413.84
2023-08-17T15:05:16.567Z,100414.56
2023-08-17T15:07:47.646Z,100425.75
2023-08-17T15:10:18.665Z,100417.09
2023-08-17T15:12:48.193Z,100423.50
2023-08-17T15:15:20.680Z,100423.38
2023-08-17T15:17:49.502Z,100413.31
2023-08-17T15:20:18.557Z,100413.81
2023-08-17T15:22:48.178Z,100411.84
2023-08-17T15:25:16.727Z,100412.56
2023-08-17T15:27:45.042Z,100422.69
2023-08-17T15:30:16.435Z,100406.19
2023-08-17T15:32:44.669Z,100411.16
2023-08-17T15:35:15.158Z,100400.09
2023-08-17T15:37:43.563Z,100398.19
2023-08-17T15:40:12.654Z,100395.25
2023-08-17T15:42:42.633Z,100400.63
2023-08-17T15:45:21.388Z,100407.25
2023-08-17T15:48:00.535Z,100410.94
2023-08-17T15:50:29.076Z,100408.75
2023-08-17T15:53:02.715Z,100404.38
2023-08-17T15:55:38.557Z,100412.97
2023-08-17T15:58:13.508Z,100423.97
2023-08-17T16:00:46.860Z,100424.66
2023-08-17T16:03:22.767Z,100430.44
2023-08-17T16:05:51.101Z,100425.44
2023-08-17T16:08:22.560Z,100425.47
2023-08-17T16:10:53.122Z,100423.31
2023-08-17T16:13:21.861Z,100424.72
2023-08-17T16:15:54.279Z,100421.72
2023-08-17T16:18:26.479Z,100426.19
2023-08-17T16:20:54.742Z,100426.13
2023-08-17T16:23:25.894Z,100421.53
2023-08-17T16:25:57.462Z,100425.19
2023-08-17T16:28:27.231Z,100427.13
2023-08-17T16:30:56.466Z,100424.38
2023-08-17T16:33:25.939Z,100429.19
2023-08-17T16:35:54.353Z,100437.91
2023-08-17T16:38:22.653Z,100437.72
2023-08-17T16:40:51.459Z,100435.44
2023-08-17T16:43:26.744Z,100445.56
2023-08-17T16:45:55.066Z,100453.28
2023-08-17T16:48:24.988Z,100447.75
2023-08-17T16:50:56.090Z,100448.81
2023-08-17T16:53:24.556Z,100456.19
2023-08-17T16:55:56.756Z,100455.38
2023-08-17T16:58:26.671Z,100454.50
2023-08-17T17:01:03.526Z,100458.84
2023-08-17T17:03:36.653Z,100472.81
2023-08-17T17:06:09.814Z,100471.50
2023-08-17T17:08:38.606Z,100481.97
2023-08-17T17:11:08.150Z,100483.50
2023-08-17T17:13:38.717Z,100477.53
2023-08-17T17:16:07.620Z,100469.91
2023-08-17T17:18:39.176Z,100471.13
2023-08-17T17:21:15.544Z,100462.41
2023-08-17T17:23:46.462Z,100464.09
2023-08-17T17:26:14.847Z,100455.03
2023-08-17T17:28:46.251Z,100458.84
2023-08-17T17:31:17.149Z,100446.44
2023-08-17T17:33:45.650Z,100440.97
2023-08-17T17:36:15.330Z,100443.50
2023-08-17T17:38:46.600Z,100438.63
2023-08-17T17:41:15.577Z,100449.34
2023-08-17T17:43:47.326Z,100448.50
2023-08-17T17:46:16.021Z,100443.66
2023-08-17T17:48:45.731Z,100449.19
2023-08-17T17:51:15.497Z,100435.16
2023-08-17T17:53:46.227Z,100443.94
2023-08-17T17:56:14.754Z,100443.47
2023-08-17T17:58:43.242Z,100430.25
2023-08-17T18:01:11.996Z,100431.00
2023-08-17T18:04:01.695Z,100439.03
2023-08-17T18:06:31.498Z,100441.66
2023-08-17T18:09:00.315Z,100437.75
2023-08-17T18:11:31.374Z,100444.50
2023-08-17T18:14:00.061Z,100453.50
2023-08-17T18:16:28.647Z,100451.28
2023-08-17T18:18:56.959Z,100464.75
2023-08-17T18:21:25.817Z,100463.19
2023-08-17T18:23:57.103Z,100469.66
2023-08-17T18:26:29.446Z,100467.06
2023-08-17T18:29:05.684Z,100459.56
2023-08-17T18:31:44.169Z,100459.91
2023-08-17T18:34:12.515Z,100463.53
2023-08-17T18:36:45.931Z,100471.41
2023-08-17T18:39:15.979Z,100471.09
2023-08-17T18:41:46.171Z,100469.16
2023-08-17T18:44:19.309Z,100477.13
2023-08-17T18:46:49.166Z,100475.56
2023-08-17T18:49:23.226Z,100477.41
2023-08-17T18:51:52.558Z,100481.69
2023-08-17T18:54:22.730Z,100481.19
2023-08-17T18:56:53.181Z,100485.50
2023-08-17T18:59:21.456Z,100482.75
2023-08-17T19:01:51.122Z,100487.84
2023-08-17T19:04:24.627Z,100494.44
2023-08-17T19:06:57.493Z,100492.53
2023-08-17T19:09:32.422Z,100498.50
2023-08-17T19:12:02.779Z,100497.34
2023-08-17T19:14:34.694Z,100493.59
2023-08-17T19:17:04.995Z,100494.41
2023-08-17T19:19:35.847Z,100495.00
2023-08-17T19:22:04.145Z,100498.47
2023-08-17T19:24:33.690Z,100503.19
2023-08-17T19:27:04.534Z,100504.72
2023-08-17T19:29:36.689Z,100495.44
2023-08-17T19:32:08.364Z,100506.53
2023-08-17T19:34:39.707Z,100503.19
2023-08-17T19:37:08.139Z,100500.81
2023-08-17T19:39:49.517Z,100512.41
2023-08-17T19:42:21.480Z,100515.09
2023-08-17T19:44:53.128Z,100516.06
2023-08-17T19:47:27.112Z,100519.22
2023-08-17T19:49:58.707Z,100512.69
2023-08-17T19:52:30.289Z,100519.06
2023-08-17T19:54:59.918Z,100516.31
2023-08-17T19:57:30.997Z,100521.97
2023-08-17T19:59:59.214Z,100523.47
2023-08-17T20:02:30.176Z,100523.28
2023-08-17T20:05:00.949Z,100516.09
2023-08-17T20:07:34.977Z,100517.97
2023-08-17T20:10:10.069Z,100513.34
2023-08-17T20:12:39.814Z,100511.09
2023-08-17T20:15:11.296Z,100521.06
2023-08-17T20:17:42.673Z,100520.75
2023-08-17T20:20:17.025Z,100516.88
2023-08-17T20:22:45.938Z,100513.19
2023-08-17T20:25:16.453Z,100511.28
2023-08-17T20:27:46.462Z,100518.97
2023-08-17T20:30:15.457Z,100511.22
2023-08-17T20:32:44.270Z,100514.13
2023-08-17T20:35:13.726Z,100512.44
2023-08-17T20:37:42.655Z,100518.75
2023-08-17T20:40:11.891Z,100513.25
2023-08-17T20:42:41.501Z,100511.38
2023-08-17T20:45:10.783Z,100503.22
2023-08-17T20:47:39.433Z,100508.38
2023-08-17T20:50:08.795Z,100508.06
2023-08-17T20:52:38.538Z,100509.59
2023-08-17T20:55:07.865Z,100514.84
2023-08-17T20:57:36.299Z,100511.19
2023-08-17T21:00:10.230Z,100511.13
2023-08-17T21:02:42.379Z,100514.59
2023-08-17T21:05:10.978Z,100513.47
2023-08-17T21:07:40.943Z,100517.75
2023-08-17T21:10:10.941Z,100516.03
2023-08-17T21:12:43.401Z,100519.91
2023-08-17T21:15:15.494Z,100515.22
2023-08-17T21:17:44.274Z,100511.97
2023-08-17T21:20:13.426Z,100511.31
2023-08-17T21:22:50.669Z,100513.34
2023-08-17T21:25:22.488Z,100515.66
2023-08-17T21:27:52.465Z,100506.72
2023-08-17T21:30:22.386Z,100502.81
2023-08-17T21:32:50.673Z,100496.00
2023-08-17T21:35:19.064Z,100490.00
2023-08-17T21:37:47.697Z,100493.66
2023-08-17T21:40:16.286Z,100494.59
2023-08-17T21:42:46.879Z,100492.94
2023-08-17T21:45:16.199Z,100482.84
2023-08-17T21:47:45.843Z,100480.38
2023-08-17T21:50:14.011Z,100491.25
2023-08-17T21:52:42.519Z,100488.91
2023-08-17T21:55:23.984Z,100481.63
2023-08-17T21:57:52.150Z,100475.59
2023-08-17T22:00:22.766Z,100476.69
2023-08-17T22:02:52.422Z,100471.47
2023-08-17T22:05:20.808Z,100472.84
2023-08-17T22:07:51.706Z,100460.28
2023-08-17T22:10:23.883Z,100464.28
2023-08-17T22:12:52.314Z,100455.72
2023-08-17T22:15:20.748Z,100462.03
2023-08-17T22:17:49.083Z,100454.03
2023-08-17T22:20:19.009Z,100459.91
2023-08-17T22:22:49.084Z,100452.91
2023-08-17T22:25:17.615Z,100451.00
2023-08-17T22:27:46.270Z,100462.84
2023-08-17T22:30:16.545Z,100458.28
2023-08-17T22:32:44.779Z,100468.47
2023-08-17T22:35:13.231Z,100476.28
2023-08-17T22:37:42.990Z,100466.19
2023-08-17T22:40:12.858Z,100473.00
2023-08-17T22:42:41.476Z,100478.16
2023-08-17T22:45:10.985Z,100479.13
2023-08-17T22:47:39.290Z,100482.19
2023-08-17T22:50:09.107Z,100490.84
2023-08-17T22:52:37.775Z,100480.53
2023-08-17T22:55:08.257Z,100484.38
2023-08-17T22:57:36.799Z,100485.44
2023-08-17T23:00:07.092Z,100481.19
2023-08-17T23:02:36.478Z,100487.31
2023-08-17T23:05:05.071Z,100479.38
2023-08-17T23:07:36.052Z,100485.66
2023-08-17T23:10:05.026Z,100478.47
2023-08-17T23:12:35.959Z,100474.38
2023-08-17T23:15:05.669Z,100473.94
2023-08-17T23:17:36.277Z,100483.75
2023-08-17T23:20:07.484Z,100483.56
2023-08-17T23:22:36.529Z,100492.56
2023-08-17T23:25:05.375Z,100488.69
2023-08-17T23:27:35.347Z,100493.59
2023-08-17T23:30:04.540Z,100486.81
2023-08-17T23:32:32.897Z,100493.72
2023-08-17T23:35:02.028Z,100489.97
2023-08-17T23:37:33.317Z,100486.81
2023-08-17T23:40:03.323Z,100489.00
2023-08-17T23:42:31.777Z,100492.88
2023-08-17T23:45:02.032Z,100492.22
2023-08-17T23:47:30.472Z,100488.41
2023-08-17T23:49:59.652Z,100486.63
2023-08-17T23:52:28.149Z,100474.53
2023-08-17T23:54:58.475Z,100476.31
2023-08-17T23:57:27.561Z,100484.66
2023-08-17T23:59:57.269Z,100482.66
